DAL825 KATL-KLAS
Flight info
| Callsign | DAL825 |
|---|---|
| Flight time | N/A |
| Altitude | 28000 |
| Route | NASSA2 YAALL J14 LIT MLC PNH/N0445F300 GUP HAHAA RKSTR4 |
| Aircraft | A321/M-SDE3FGHIRWY/LB1 |
Departure
| Time | 2026-05-08 02:23 |
|---|---|
| Airport | Hartsfield Jackson Atlanta International Airport (KATL) |
Arrival
| Time | N/A |
|---|---|
| Airport | Harry Reid International Airport (KLAS) |
| Time | Latitude | Longitude | Altitude | Speed | Heading |
|---|---|---|---|---|---|
| 2026-05-08 02:04 | 33.64209 | -84.43969 | 1006 ft | 0 kts | 90° |
| 2026-05-08 02:11 | 33.64209 | -84.43982 | 1006 ft | 4 kts | 90° |
| 2026-05-08 02:12 | 33.64209 | -84.44014 | 1006 ft | 4 kts | 85° |
| 2026-05-08 02:12 | 33.64203 | -84.44043 | 1006 ft | 4 kts | 48° |
| 2026-05-08 02:12 | 33.64197 | -84.44051 | 1006 ft | 0 kts | 31° |
| 2026-05-08 02:14 | 33.64199 | -84.44050 | 1006 ft | 0 kts | 23° |
| 2026-05-08 02:15 | 33.64208 | -84.44050 | 1006 ft | 2 kts | 4° |
| 2026-05-08 02:15 | 33.64247 | -84.44049 | 1006 ft | 9 kts | 360° |
| 2026-05-08 02:15 | 33.64319 | -84.44049 | 1006 ft | 6 kts | 0° |
| 2026-05-08 02:15 | 33.64330 | -84.44049 | 1006 ft | 3 kts | 0° |
| 2026-05-08 02:16 | 33.64368 | -84.44049 | 1006 ft | 9 kts | 0° |
| 2026-05-08 02:16 | 33.64426 | -84.43995 | 1006 ft | 14 kts | 72° |
| 2026-05-08 02:16 | 33.64444 | -84.43857 | 1006 ft | 19 kts | 83° |
| 2026-05-08 02:16 | 33.64459 | -84.43698 | 1006 ft | 18 kts | 85° |
| 2026-05-08 02:17 | 33.64459 | -84.43545 | 1006 ft | 20 kts | 90° |
| 2026-05-08 02:17 | 33.64460 | -84.43367 | 1006 ft | 21 kts | 90° |
| 2026-05-08 02:17 | 33.64460 | -84.43198 | 1006 ft | 19 kts | 89° |
| 2026-05-08 02:17 | 33.64460 | -84.43031 | 1006 ft | 22 kts | 89° |
| 2026-05-08 02:18 | 33.64460 | -84.42845 | 1006 ft | 22 kts | 90° |
| 2026-05-08 02:18 | 33.64468 | -84.42672 | 1006 ft | 20 kts | 87° |
| 2026-05-08 02:18 | 33.64469 | -84.42512 | 1006 ft | 20 kts | 89° |
| 2026-05-08 02:18 | 33.64469 | -84.42337 | 1006 ft | 22 kts | 90° |
| 2026-05-08 02:19 | 33.64521 | -84.42158 | 1006 ft | 24 kts | 59° |
| 2026-05-08 02:19 | 33.64543 | -84.41973 | 1006 ft | 22 kts | 90° |
| 2026-05-08 02:19 | 33.64543 | -84.41801 | 1006 ft | 20 kts | 89° |
| 2026-05-08 02:19 | 33.64543 | -84.41627 | 1007 ft | 23 kts | 90° |
| 2026-05-08 02:20 | 33.64543 | -84.41419 | 1007 ft | 25 kts | 90° |
| 2026-05-08 02:20 | 33.64543 | -84.41218 | 1007 ft | 23 kts | 90° |
| 2026-05-08 02:20 | 33.64544 | -84.41033 | 1006 ft | 21 kts | 90° |
| 2026-05-08 02:20 | 33.64542 | -84.40859 | 1006 ft | 20 kts | 90° |
| 2026-05-08 02:21 | 33.64569 | -84.40716 | 1005 ft | 16 kts | 88° |
| 2026-05-08 02:21 | 33.64575 | -84.40599 | 1005 ft | 9 kts | 73° |
| 2026-05-08 02:21 | 33.64612 | -84.40570 | 1004 ft | 6 kts | 8° |
| 2026-05-08 02:21 | 33.64656 | -84.40572 | 1004 ft | 6 kts | 347° |
| 2026-05-08 02:22 | 33.64678 | -84.40624 | 1003 ft | 13 kts | 276° |
| 2026-05-08 02:22 | 33.64679 | -84.40990 | 1007 ft | 78 kts | 270° |
| 2026-05-08 02:22 | 33.64680 | -84.41892 | 1007 ft | 136 kts | 270° |
| 2026-05-08 02:22 | 33.64685 | -84.43210 | 1069 ft | 174 kts | 270° |
| 2026-05-08 02:23 | 33.64703 | -84.44638 | 1797 ft | 169 kts | 271° |
| 2026-05-08 02:23 | 33.64812 | -84.46039 | 2464 ft | 170 kts | 284° |
| 2026-05-08 02:23 | 33.65059 | -84.47428 | 2944 ft | 173 kts | 285° |
| 2026-05-08 02:23 | 33.65316 | -84.48873 | 3101 ft | 187 kts | 285° |
| 2026-05-08 02:24 | 33.65601 | -84.50474 | 3218 ft | 203 kts | 285° |
| 2026-05-08 02:24 | 33.65911 | -84.52200 | 3360 ft | 220 kts | 284° |
| 2026-05-08 02:24 | 33.66253 | -84.54082 | 3484 ft | 242 kts | 284° |
| 2026-05-08 02:24 | 33.66619 | -84.56105 | 3963 ft | 251 kts | 283° |
| 2026-05-08 02:25 | 33.66985 | -84.58133 | 4633 ft | 253 kts | 283° |
| 2026-05-08 02:25 | 33.67348 | -84.60198 | 5328 ft | 253 kts | 281° |
| 2026-05-08 02:25 | 33.67693 | -84.62260 | 6055 ft | 251 kts | 280° |
| 2026-05-08 02:25 | 33.68033 | -84.64310 | 6747 ft | 250 kts | 280° |
| 2026-05-08 02:26 | 33.68375 | -84.66353 | 7424 ft | 249 kts | 280° |
| 2026-05-08 02:26 | 33.68715 | -84.68386 | 8074 ft | 249 kts | 280° |
| 2026-05-08 02:26 | 33.69057 | -84.70414 | 8744 ft | 248 kts | 280° |
| 2026-05-08 02:26 | 33.69400 | -84.72444 | 9415 ft | 248 kts | 280° |
| 2026-05-08 02:27 | 33.69742 | -84.74471 | 10041 ft | 247 kts | 279° |
| 2026-05-08 02:27 | 33.69994 | -84.76547 | 10351 ft | 260 kts | 272° |
| 2026-05-08 02:27 | 33.69996 | -84.78785 | 10470 ft | 277 kts | 270° |
| 2026-05-08 02:27 | 33.69985 | -84.81169 | 10612 ft | 294 kts | 270° |
| 2026-05-08 02:28 | 33.69976 | -84.83682 | 10896 ft | 305 kts | 270° |
| 2026-05-08 02:28 | 33.69969 | -84.86240 | 11411 ft | 307 kts | 270° |
| 2026-05-08 02:28 | 33.69963 | -84.88808 | 11992 ft | 308 kts | 270° |
| 2026-05-08 02:28 | 33.69960 | -84.91381 | 12581 ft | 309 kts | 271° |
| 2026-05-08 02:29 | 33.69956 | -84.93960 | 13163 ft | 309 kts | 270° |
| 2026-05-08 02:29 | 33.69950 | -84.96548 | 13743 ft | 310 kts | 271° |
| 2026-05-08 02:29 | 33.69943 | -84.99148 | 14234 ft | 312 kts | 271° |
| 2026-05-08 02:29 | 33.69934 | -85.01754 | 14718 ft | 313 kts | 270° |
| 2026-05-08 02:30 | 33.69926 | -85.04372 | 15196 ft | 314 kts | 270° |
| 2026-05-08 02:30 | 33.69919 | -85.07002 | 15660 ft | 316 kts | 270° |
| 2026-05-08 02:30 | 33.69910 | -85.09646 | 16113 ft | 317 kts | 270° |
| 2026-05-08 02:30 | 33.69900 | -85.12300 | 16578 ft | 318 kts | 270° |
| 2026-05-08 02:31 | 33.69888 | -85.14960 | 17035 ft | 320 kts | 270° |
| 2026-05-08 02:31 | 33.69877 | -85.17603 | 17472 ft | 321 kts | 270° |
| 2026-05-08 02:31 | 33.69867 | -85.20293 | 17905 ft | 323 kts | 270° |
| 2026-05-08 02:31 | 33.69856 | -85.23000 | 18348 ft | 324 kts | 270° |
| 2026-05-08 02:32 | 33.69837 | -85.25714 | 18722 ft | 326 kts | 269° |
| 2026-05-08 02:32 | 33.69808 | -85.28443 | 19077 ft | 327 kts | 269° |
| 2026-05-08 02:32 | 33.69777 | -85.31181 | 19434 ft | 329 kts | 269° |
| 2026-05-08 02:32 | 33.69744 | -85.33933 | 19736 ft | 330 kts | 269° |
| 2026-05-08 02:33 | 33.69709 | -85.36692 | 20091 ft | 332 kts | 269° |
| 2026-05-08 02:33 | 33.69675 | -85.39467 | 20445 ft | 333 kts | 269° |
| 2026-05-08 02:33 | 33.69642 | -85.42252 | 20793 ft | 334 kts | 269° |
| 2026-05-08 02:33 | 33.69608 | -85.45044 | 21139 ft | 335 kts | 269° |
| 2026-05-08 02:34 | 33.69575 | -85.47847 | 21484 ft | 337 kts | 269° |
| 2026-05-08 02:34 | 33.69542 | -85.50666 | 21819 ft | 338 kts | 269° |
| 2026-05-08 02:34 | 33.69506 | -85.53492 | 22144 ft | 339 kts | 269° |
| 2026-05-08 02:34 | 33.69469 | -85.56334 | 22468 ft | 341 kts | 270° |
| 2026-05-08 02:35 | 33.69433 | -85.59173 | 22775 ft | 342 kts | 269° |
| 2026-05-08 02:35 | 33.69395 | -85.62037 | 23101 ft | 344 kts | 269° |
| 2026-05-08 02:35 | 33.69355 | -85.64914 | 23418 ft | 345 kts | 269° |
| 2026-05-08 02:35 | 33.69314 | -85.67798 | 23718 ft | 347 kts | 269° |
| 2026-05-08 02:36 | 33.69273 | -85.70700 | 23971 ft | 348 kts | 269° |
| 2026-05-08 02:36 | 33.69231 | -85.73604 | 24170 ft | 349 kts | 269° |
| 2026-05-08 02:36 | 33.69188 | -85.76528 | 24430 ft | 350 kts | 269° |
| 2026-05-08 02:36 | 33.69149 | -85.79453 | 24705 ft | 351 kts | 269° |
| 2026-05-08 02:37 | 33.69109 | -85.82388 | 24971 ft | 352 kts | 269° |
| 2026-05-08 02:37 | 33.69066 | -85.85293 | 25227 ft | 353 kts | 269° |
| 2026-05-08 02:37 | 33.69018 | -85.88284 | 25481 ft | 354 kts | 269° |
| 2026-05-08 02:37 | 33.68970 | -85.91203 | 25734 ft | 356 kts | 269° |
| 2026-05-08 02:38 | 33.68920 | -85.94180 | 25991 ft | 357 kts | 269° |
| 2026-05-08 02:38 | 33.68869 | -85.97165 | 26214 ft | 358 kts | 269° |
| 2026-05-08 02:38 | 33.68817 | -86.00157 | 26459 ft | 359 kts | 269° |
| 2026-05-08 02:38 | 33.68767 | -86.03161 | 26703 ft | 360 kts | 269° |
| 2026-05-08 02:39 | 33.68899 | -86.06167 | 26939 ft | 362 kts | 274° |
| 2026-05-08 02:39 | 33.69148 | -86.09177 | 27163 ft | 363 kts | 274° |
| 2026-05-08 02:39 | 33.69391 | -86.12198 | 27396 ft | 364 kts | 274° |
| 2026-05-08 02:39 | 33.69630 | -86.15225 | 27611 ft | 365 kts | 274° |
| 2026-05-08 02:40 | 33.69868 | -86.18269 | 27865 ft | 366 kts | 274° |
| 2026-05-08 02:40 | 33.70104 | -86.21325 | 28030 ft | 368 kts | 274° |
| 2026-05-08 02:40 | 33.70580 | -86.27516 | 28053 ft | 379 kts | 274° |
| 2026-05-08 02:41 | 33.71064 | -86.33859 | 28060 ft | 383 kts | 274° |
| 2026-05-08 02:41 | 33.71554 | -86.40224 | 28065 ft | 383 kts | 274° |
| 2026-05-08 02:42 | 33.72042 | -86.46591 | 28072 ft | 383 kts | 274° |
| 2026-05-08 02:42 | 33.72530 | -86.52961 | 28078 ft | 383 kts | 274° |
| 2026-05-08 02:43 | 33.73010 | -86.59337 | 28076 ft | 383 kts | 274° |
| 2026-05-08 02:43 | 33.73482 | -86.65666 | 28079 ft | 383 kts | 274° |